Time;durP1;ratioP1;P1;durP2;ratioP2;P2;SDS_P1;SDS_P2;PMS_P1;PMS_P2;Temp;Humidity;BMP_temperature;BMP_pressure;BME280_temperature;BME280_humidity;BME280_pressure;Samples;Min_cycle;Max_cycle;Signal;HPM_P1;HPM_P2
2022/10/09 00:01:27;;;;;;;;;;;;;;;14.46;100.00;98857.14;1719449;81;24479;-89
2022/10/09 00:03:54;;;;;;;;;;;;;;;14.51;100.00;98861.56;1707324;81;20595;-82
2022/10/09 00:06:22;;;;;;;;;;;;;;;14.54;100.00;98865.29;1701332;82;24881;-83
2022/10/09 00:08:49;;;;;;;;;;;;;;;14.48;100.00;98868.41;1665461;84;22061;-83
2022/10/09 00:11:17;;;;;;;;;;;;;;;14.47;100.00;98866.72;1657225;83;26833;-82
2022/10/09 00:13:46;;;;;;;;;;;;;;;14.46;100.00;98866.36;1668294;83;24475;-83
2022/10/09 00:16:15;;;;;;;;;;;;;;;14.52;100.00;98865.87;1700511;82;20262;-90
2022/10/09 00:18:41;;;;;;;;;;;;;;;14.58;100.00;98871.14;1662799;83;25872;-91
2022/10/09 00:21:19;;;;;;;;;;;;;;;14.57;100.00;98869.45;1669880;83;20280;-90
2022/10/09 00:24:01;;;;;;;;;;;;;;;14.53;100.00;98879.41;1689556;82;25806;-90
2022/10/09 00:26:27;;;;;;;;;;;;;;;14.55;100.00;98880.61;1720193;80;23892;-88
2022/10/09 00:28:56;;;;;;;;;;;;;;;14.51;100.00;98881.31;1722675;81;20244;-88
2022/10/09 00:31:22;;;;;;;;;;;;;;;14.49;100.00;98889.84;1730977;80;25011;-89
2022/10/09 00:33:50;;;;;;;;;;;;;;;14.41;100.00;98893.53;1727372;80;22131;-90
2022/10/09 00:36:17;;;;;;;;;;;;;;;14.39;100.00;98890.20;1684226;82;26167;-90
2022/10/09 00:38:44;;;;;;;;;;;;;;;14.35;100.00;98891.81;1686053;82;24453;-90
2022/10/09 00:41:11;;;;;;;;;;;;;;;14.32;100.00;98888.13;1693216;82;20462;-89
2022/10/09 00:43:42;;;;;;;;;;;;;;;14.22;100.00;98886.22;1693845;82;25513;-89
2022/10/09 00:46:26;;;;;;;;;;;;;;;14.16;100.00;98881.42;1716074;81;22132;-89
2022/10/09 00:48:57;;;;;;;;;;;;;;;14.13;100.00;98886.91;1728289;80;25996;-90
2022/10/09 00:51:23;;;;;;;;;;;;;;;14.09;100.00;98891.20;1728114;81;24442;-85
2022/10/09 00:53:49;;;;;;;;;;;;;;;14.14;100.00;98894.33;1722243;80;20221;-86
2022/10/09 00:56:18;;;;;;;;;;;;;;;14.17;100.00;98894.95;1717476;80;20301;-86
2022/10/09 00:58:46;;;;;;;;;;;;;;;14.20;100.00;98892.54;1722660;80;22073;-86
2022/10/09 01:01:11;;;;;;;;;;;;;;;14.16;100.00;98900.32;1726878;80;26151;-88
2022/10/09 01:03:39;;;;;;;;;;;;;;;14.18;100.00;98901.86;1724238;81;20901;-90
2022/10/09 01:06:06;;;;;;;;;;;;;;;14.15;100.00;98907.85;1728658;80;20357;-89
2022/10/09 01:08:40;;;;;;;;;;;;;;;14.15;100.00;98915.75;1729916;80;24806;-89
2022/10/09 01:11:24;;;;;;;;;;;;;;;14.16;100.00;98918.75;1721145;80;22018;-89
2022/10/09 01:13:53;;;;;;;;;;;;;;;14.17;100.00;98918.64;1724682;79;26051;-90
2022/10/09 01:16:25;;;;;;;;;;;;;;;14.09;100.00;98916.21;1734644;80;25122;-90
2022/10/09 01:18:59;;;;;;;;;;;;;;;14.07;100.00;98911.56;1690973;82;20236;-85
2022/10/09 01:21:27;;;;;;;;;;;;;;;14.08;100.00;98912.74;1678036;82;24998;-89
2022/10/09 01:23:57;;;;;;;;;;;;;;;14.12;100.00;98919.95;1685238;82;22682;-88
2022/10/09 01:26:31;;;;;;;;;;;;;;;14.11;100.00;98920.42;1675030;82;26629;-89
2022/10/09 01:28:59;;;;;;;;;;;;;;;14.05;100.00;98924.83;1667487;83;24561;-83
2022/10/09 01:31:27;;;;;;;;;;;;;;;13.94;100.00;98918.70;1682146;83;20209;-89
2022/10/09 01:33:53;;;;;;;;;;;;;;;13.81;100.00;98922.73;1687119;82;25421;-88
2022/10/09 01:36:19;;;;;;;;;;;;;;;13.72;100.00;98921.64;1704059;82;20930;-89
2022/10/09 01:38:45;;;;;;;;;;;;;;;13.73;100.00;98918.06;1692138;82;26184;-89
2022/10/09 01:41:11;;;;;;;;;;;;;;;13.66;100.00;98915.52;1689339;83;25374;-89
2022/10/09 01:43:39;;;;;;;;;;;;;;;13.64;100.00;98924.46;1677493;83;20482;-89
2022/10/09 01:46:21;;;;;;;;;;;;;;;13.72;100.00;98926.90;1685999;81;25409;-90
2022/10/09 01:48:49;;;;;;;;;;;;;;;13.71;100.00;98927.00;1690024;82;22121;-89
2022/10/09 01:51:15;;;;;;;;;;;;;;;13.74;100.00;98931.58;1690574;82;27048;-89
2022/10/09 01:53:52;;;;;;;;;;;;;;;13.85;100.00;98938.67;1676647;83;24482;-89
2022/10/09 01:56:20;;;;;;;;;;;;;;;13.86;100.00;98938.16;1699033;82;20230;-90
2022/10/09 01:58:47;;;;;;;;;;;;;;;13.82;100.00;98939.72;1662809;83;24775;-89
2022/10/09 02:01:15;;;;;;;;;;;;;;;13.85;100.00;98943.09;1670671;85;22833;-89
2022/10/09 02:03:42;;;;;;;;;;;;;;;13.84;100.00;98942.25;1674990;83;26152;-90
2022/10/09 02:06:13;;;;;;;;;;;;;;;13.86;100.00;98944.73;1673028;83;25373;-89
2022/10/09 02:08:40;;;;;;;;;;;;;;;13.92;100.00;98951.70;1658802;83;20285;-86
2022/10/09 02:11:06;;;;;;;;;;;;;;;13.95;100.00;98944.06;1671800;84;24864;-86
2022/10/09 02:13:34;;;;;;;;;;;;;;;13.91;100.00;98945.27;1680597;83;21982;-86
2022/10/09 02:16:14;;;;;;;;;;;;;;;13.90;100.00;98953.62;1681429;82;25952;-88
2022/10/09 02:18:42;;;;;;;;;;;;;;;13.92;100.00;98953.49;1683141;82;24644;-88
2022/10/09 02:21:09;;;;;;;;;;;;;;;13.94;100.00;98961.64;1690520;82;20245;-86
2022/10/09 02:23:37;;;;;;;;;;;;;;;13.92;100.00;98961.38;1646244;84;24842;-86
2022/10/09 02:26:03;;;;;;;;;;;;;;;13.88;100.00;98969.16;1687950;82;21505;-90
2022/10/09 02:28:38;;;;;;;;;;;;;;;13.86;100.00;98973.68;1687529;82;26066;-90
2022/10/09 02:31:06;;;;;;;;;;;;;;;13.85;100.00;98967.61;1683655;83;24541;-90
2022/10/09 02:33:33;;;;;;;;;;;;;;;13.79;100.00;98972.00;1679861;82;20213;-90
2022/10/09 02:36:03;;;;;;;;;;;;;;;13.74;100.00;98978.93;1685519;83;24749;-90
2022/10/09 02:38:30;;;;;;;;;;;;;;;13.73;100.00;98976.41;1680893;82;22899;-90
2022/10/09 02:40:58;;;;;;;;;;;;;;;13.72;100.00;98978.20;1685225;84;26321;-91
2022/10/09 02:43:24;;;;;;;;;;;;;;;13.74;100.00;98978.09;1694234;82;24461;-90
2022/10/09 02:45:50;;;;;;;;;;;;;;;13.75;100.00;98981.90;1682043;82;20298;-85
2022/10/09 02:48:15;;;;;;;;;;;;;;;13.65;100.00;98982.69;1659998;83;20221;-83
2022/10/09 02:50:42;;;;;;;;;;;;;;;13.56;100.00;98981.59;1671289;82;20296;-88
2022/10/09 02:53:09;;;;;;;;;;;;;;;13.49;100.00;98990.02;1687000;82;26067;-83
2022/10/09 02:55:37;;;;;;;;;;;;;;;13.48;100.00;98994.91;1688139;82;25391;-84
2022/10/09 02:58:08;;;;;;;;;;;;;;;13.46;100.00;98992.89;1669168;83;20469;-83
2022/10/09 03:00:33;;;;;;;;;;;;;;;13.42;100.00;99000.64;1672032;82;24865;-84
2022/10/09 03:02:59;;;;;;;;;;;;;;;13.34;100.00;99004.66;1685517;83;20816;-83
2022/10/09 03:05:25;;;;;;;;;;;;;;;13.25;100.00;99011.05;1672365;83;21175;-84
2022/10/09 03:07:51;;;;;;;;;;;;;;;13.13;100.00;99005.36;1673447;82;20271;-83
2022/10/09 03:10:21;;;;;;;;;;;;;;;13.02;100.00;99014.44;1687123;82;20390;-83
2022/10/09 03:12:47;;;;;;;;;;;;;;;12.97;100.00;99015.61;1688879;81;24842;-89
2022/10/09 03:15:16;;;;;;;;;;;;;;;12.91;100.00;99021.29;1705822;82;22023;-88
2022/10/09 03:17:42;;;;;;;;;;;;;;;12.93;100.00;99019.38;1674669;83;26015;-88
2022/10/09 03:20:08;;;;;;;;;;;;;;;12.99;100.00;99018.10;1675610;83;20225;-88
2022/10/09 03:22:34;;;;;;;;;;;;;;;12.96;100.00;99023.12;1666799;83;20555;-88
2022/10/09 03:25:00;;;;;;;;;;;;;;;12.95;100.00;99020.59;1685803;82;20253;-88
2022/10/09 03:27:30;;;;;;;;;;;;;;;12.92;100.00;99023.45;1705525;82;20237;-88
2022/10/09 03:29:57;;;;;;;;;;;;;;;12.88;100.00;99012.77;1698894;82;26176;-88
2022/10/09 03:32:23;;;;;;;;;;;;;;;12.91;100.00;99028.33;1682944;82;25306;-90
2022/10/09 03:34:49;;;;;;;;;;;;;;;12.95;100.00;99024.53;1687633;83;20273;-90
2022/10/09 03:40:18;;;;;;;;;;;;;;;13.02;100.00;99033.67;1665978;84;22192;-90
2022/10/09 03:42:59;;;;;;;;;;;;;;;13.00;100.00;99034.24;1685054;82;21197;-90
2022/10/09 03:45:25;;;;;;;;;;;;;;;12.96;100.00;99034.94;1662244;84;25491;-90
2022/10/09 03:47:53;;;;;;;;;;;;;;;12.89;100.00;99036.30;1665526;84;20271;-83
2022/10/09 03:50:19;;;;;;;;;;;;;;;12.82;100.00;99035.05;1668564;83;24813;-83
2022/10/09 03:52:45;;;;;;;;;;;;;;;12.79;100.00;99033.11;1682223;83;20256;-83
2022/10/09 03:55:10;;;;;;;;;;;;;;;12.77;100.00;99034.99;1674884;83;21051;-83
2022/10/09 03:57:36;;;;;;;;;;;;;;;12.72;100.00;99035.78;1680761;83;20304;-83
2022/10/09 04:00:03;;;;;;;;;;;;;;;12.66;100.00;99032.27;1684614;83;20423;-86
2022/10/09 04:02:30;;;;;;;;;;;;;;;12.58;100.00;99036.28;1677497;82;24935;-85
2022/10/09 04:05:11;;;;;;;;;;;;;;;12.52;100.00;99035.38;1678913;82;22109;-90
2022/10/09 04:07:37;;;;;;;;;;;;;;;12.46;100.00;99043.67;1684763;83;26031;-90
2022/10/09 04:10:03;;;;;;;;;;;;;;;12.38;100.00;99040.70;1680591;83;20988;-87
2022/10/09 04:12:29;;;;;;;;;;;;;;;12.32;100.00;99042.93;1680334;83;20318;-88
2022/10/09 04:14:56;;;;;;;;;;;;;;;12.27;100.00;99045.02;1681242;83;20383;-83
2022/10/09 04:17:23;;;;;;;;;;;;;;;12.23;100.00;99052.23;1678130;82;22267;-83
2022/10/09 04:19:49;;;;;;;;;;;;;;;12.18;100.00;99054.80;1684797;82;26132;-84
2022/10/09 04:22:15;;;;;;;;;;;;;;;12.14;100.00;99062.89;1675557;84;20294;-83
2022/10/09 04:24:41;;;;;;;;;;;;;;;12.09;100.00;99058.89;1681386;83;20250;-84
2022/10/09 04:27:07;;;;;;;;;;;;;;;12.05;100.00;99057.41;1689447;83;20273;-85
2022/10/09 04:29:41;;;;;;;;;;;;;;;12.05;100.00;99067.91;1691479;82;21992;-89
2022/10/09 04:32:07;;;;;;;;;;;;;;;12.01;100.00;99071.65;1670049;84;26025;-83
2022/10/09 04:34:33;;;;;;;;;;;;;;;12.00;100.00;99068.69;1691244;83;24554;-83
2022/10/09 04:36:59;;;;;;;;;;;;;;;11.97;100.00;99065.78;1684351;82;20413;-83
2022/10/09 04:39:26;;;;;;;;;;;;;;;11.95;100.00;99071.58;1680353;82;20279;-88
2022/10/09 04:41:52;;;;;;;;;;;;;;;11.93;100.00;99077.42;1693296;81;22121;-89
2022/10/09 04:44:18;;;;;;;;;;;;;;;11.89;100.00;99073.28;1673481;83;25690;-83
2022/10/09 04:46:44;;;;;;;;;;;;;;;11.89;100.00;99082.97;1691230;82;20287;-88
2022/10/09 04:49:12;;;;;;;;;;;;;;;11.85;100.00;99080.99;1695125;82;20234;-86
2022/10/09 04:51:38;;;;;;;;;;;;;;;11.84;100.00;99080.61;1681902;83;24781;-90
2022/10/09 04:54:13;;;;;;;;;;;;;;;11.82;100.00;99089.54;1677134;82;20269;-89
2022/10/09 04:56:49;;;;;;;;;;;;;;;11.82;100.00;99094.78;1687710;83;26061;-89
2022/10/09 04:59:14;;;;;;;;;;;;;;;11.81;100.00;99096.56;1682844;82;24481;-89
2022/10/09 05:01:44;;;;;;;;;;;;;;;11.80;100.00;99101.42;1692369;82;20368;-89
2022/10/09 05:04:10;;;;;;;;;;;;;;;11.77;100.00;99104.27;1689146;82;24789;-88
2022/10/09 05:06:36;;;;;;;;;;;;;;;11.78;100.00;99101.17;1693828;82;20298;-87
2022/10/09 05:09:02;;;;;;;;;;;;;;;11.70;100.00;99100.30;1684362;83;21048;-87
2022/10/09 05:11:28;;;;;;;;;;;;;;;11.63;100.00;99105.56;1680819;83;24466;-82
2022/10/09 05:13:54;;;;;;;;;;;;;;;11.63;100.00;99105.09;1658453;84;20248;-85
2022/10/09 05:16:33;;;;;;;;;;;;;;;11.67;100.00;99104.45;1688773;82;24836;-89
2022/10/09 05:18:59;;;;;;;;;;;;;;;11.68;100.00;99109.57;1685315;84;21968;-89
2022/10/09 05:21:26;;;;;;;;;;;;;;;11.70;100.00;99110.33;1693526;82;26858;-89
2022/10/09 05:23:53;;;;;;;;;;;;;;;11.70;100.00;99118.66;1690911;82;24412;-89
2022/10/09 05:26:24;;;;;;;;;;;;;;;11.69;100.00;99119.13;1660814;84;21051;-87
2022/10/09 05:28:50;;;;;;;;;;;;;;;11.68;100.00;99117.91;1724579;81;24868;-88
2022/10/09 05:31:18;;;;;;;;;;;;;;;11.66;100.00;99128.98;1685010;82;22713;-88
2022/10/09 05:33:44;;;;;;;;;;;;;;;11.65;100.00;99129.91;1690797;82;26580;-88
2022/10/09 05:36:10;;;;;;;;;;;;;;;11.58;100.00;99125.52;1723206;80;24705;-85
2022/10/09 05:38:36;;;;;;;;;;;;;;;11.58;100.00;99135.16;1716779;81;20221;-89
2022/10/09 05:41:04;;;;;;;;;;;;;;;11.56;100.00;99130.50;1728301;80;20356;-90
2022/10/09 05:43:31;;;;;;;;;;;;;;;11.55;100.00;99137.98;1732435;81;22253;-89
2022/10/09 05:46:04;;;;;;;;;;;;;;;11.53;100.00;99138.54;1726026;79;26111;-83
2022/10/09 05:48:30;;;;;;;;;;;;;;;11.52;100.00;99139.47;1702232;82;24621;-90
2022/10/09 05:51:07;;;;;;;;;;;;;;;11.51;100.00;99145.67;1729709;80;20239;-89
2022/10/09 05:53:57;;;;;;;;;;;;;;;11.49;100.00;99143.61;1730653;80;24795;-91
2022/10/09 05:56:30;;;;;;;;;;;;;;;11.48;100.00;99145.38;1731743;81;21975;-89
2022/10/09 05:58:57;;;;;;;;;;;;;;;11.47;100.00;99154.64;1730318;80;25979;-90
2022/10/09 06:01:26;;;;;;;;;;;;;;;11.46;100.00;99151.17;1707970;80;20727;-88
2022/10/09 06:03:53;;;;;;;;;;;;;;;11.46;100.00;99154.27;1699531;82;20257;-88
2022/10/09 06:06:20;;;;;;;;;;;;;;;11.47;100.00;99163.34;1696708;82;24830;-88
2022/10/09 06:08:46;;;;;;;;;;;;;;;11.49;100.00;99163.27;1696375;82;21948;-83
2022/10/09 06:11:13;;;;;;;;;;;;;;;11.51;100.00;99160.09;1690494;82;21963;-86
2022/10/09 06:13:42;;;;;;;;;;;;;;;11.52;100.00;99173.08;1692538;82;22340;-83
2022/10/09 06:16:10;;;;;;;;;;;;;;;11.54;100.00;99174.30;1695258;82;20470;-83
2022/10/09 06:18:36;;;;;;;;;;;;;;;11.55;100.00;99173.38;1694328;81;24932;-85
2022/10/09 06:21:02;;;;;;;;;;;;;;;11.51;100.00;99175.32;1686853;82;22109;-85
2022/10/09 06:23:30;;;;;;;;;;;;;;;11.50;100.00;99178.91;1690023;82;26333;-87
2022/10/09 06:26:00;;;;;;;;;;;;;;;11.50;100.00;99185.92;1671377;82;24058;-88
2022/10/09 06:28:30;;;;;;;;;;;;;;;11.58;100.00;99188.89;1700540;81;20321;-88
2022/10/09 06:31:00;;;;;;;;;;;;;;;11.65;100.00;99190.21;1697209;82;24828;-88
2022/10/09 06:33:31;;;;;;;;;;;;;;;11.70;100.00;99190.77;1689834;81;22055;-88
2022/10/09 06:36:01;;;;;;;;;;;;;;;11.75;100.00;99196.59;1679571;83;25986;-88
2022/10/09 06:38:29;;;;;;;;;;;;;;;11.83;100.00;99199.59;1687027;83;25323;-83
2022/10/09 06:40:54;;;;;;;;;;;;;;;11.89;100.00;99192.63;1686356;83;20603;-86
2022/10/09 06:43:23;;;;;;;;;;;;;;;11.94;100.00;99202.39;1683040;82;20452;-86
2022/10/09 06:45:53;;;;;;;;;;;;;;;11.96;100.00;99209.67;1674354;83;20468;-83
2022/10/09 06:48:18;;;;;;;;;;;;;;;11.98;100.00;99206.96;1678468;83;26024;-84
2022/10/09 06:50:44;;;;;;;;;;;;;;;12.03;100.00;99213.60;1674335;83;20400;-89
2022/10/09 06:53:10;;;;;;;;;;;;;;;12.08;100.00;99212.84;1674207;83;20836;-84
2022/10/09 06:55:36;;;;;;;;;;;;;;;12.09;100.00;99221.09;1674970;83;20249;-85
2022/10/09 06:58:02;;;;;;;;;;;;;;;12.16;100.00;99219.73;1675922;83;20821;-89
2022/10/09 07:00:28;;;;;;;;;;;;;;;12.23;100.00;99229.84;1682627;82;26071;-89
2022/10/09 07:02:54;;;;;;;;;;;;;;;12.26;100.00;99230.98;1675259;82;25504;-86
2022/10/09 07:05:20;;;;;;;;;;;;;;;12.24;100.00;99236.78;1684959;83;20373;-86
2022/10/09 07:07:45;;;;;;;;;;;;;;;12.27;100.00;99237.45;1695510;82;20257;-86
2022/10/09 07:10:12;;;;;;;;;;;;;;;12.25;100.00;99245.87;1679515;83;22275;-89
2022/10/09 07:12:38;;;;;;;;;;;;;;;12.28;100.00;99246.14;1687141;82;21576;-89
2022/10/09 07:15:05;;;;;;;;;;;;;;;12.21;100.00;99247.02;1686232;82;20845;-84
2022/10/09 07:17:31;;;;;;;;;;;;;;;12.12;100.00;99247.12;1688210;82;20273;-88
2022/10/09 07:19:58;;;;;;;;;;;;;;;12.04;100.00;99242.84;1684829;82;24836;-87
2022/10/09 07:22:23;;;;;;;;;;;;;;;12.04;100.00;99245.92;1689194;82;20224;-83
2022/10/09 07:24:50;;;;;;;;;;;;;;;12.03;100.00;99249.02;1685222;83;21028;-88
2022/10/09 07:27:16;;;;;;;;;;;;;;;12.14;100.00;99252.28;1656879;83;24535;-88
2022/10/09 07:29:42;;;;;;;;;;;;;;;12.23;100.00;99250.84;1683177;83;20246;-88
2022/10/09 07:32:08;;;;;;;;;;;;;;;12.18;100.00;99252.91;1664186;84;20229;-88
2022/10/09 07:34:34;;;;;;;;;;;;;;;12.21;100.00;99252.27;1689152;82;22129;-88
2022/10/09 07:37:00;;;;;;;;;;;;;;;12.30;100.00;99246.42;1722992;80;20987;-87
2022/10/09 07:39:26;;;;;;;;;;;;;;;12.20;100.00;99251.05;1730597;80;20256;-87
2022/10/09 07:41:52;;;;;;;;;;;;;;;12.17;100.00;99244.20;1719937;80;20307;-88
2022/10/09 07:44:18;;;;;;;;;;;;;;;12.34;100.00;99246.59;1718622;80;20223;-88
2022/10/09 07:46:46;;;;;;;;;;;;;;;12.39;100.00;99252.86;1719925;80;20293;-89
2022/10/09 07:49:12;;;;;;;;;;;;;;;12.24;100.00;99252.06;1728512;81;26850;-88
2022/10/09 07:51:37;;;;;;;;;;;;;;;12.09;100.00;99251.27;1722027;80;20770;-88
2022/10/09 07:54:03;;;;;;;;;;;;;;;11.93;100.00;99244.45;1723009;81;20844;-87
2022/10/09 07:56:31;;;;;;;;;;;;;;;11.83;100.00;99243.34;1681589;83;20219;-88
2022/10/09 07:58:58;;;;;;;;;;;;;;;11.71;100.00;99244.90;1672667;82;22023;-84
2022/10/09 08:01:26;;;;;;;;;;;;;;;11.71;100.00;99246.21;1679633;82;26049;-83
2022/10/09 08:03:53;;;;;;;;;;;;;;;11.70;100.00;99249.30;1679103;82;23903;-84
2022/10/09 08:06:21;;;;;;;;;;;;;;;11.73;100.00;99249.13;1693377;81;20291;-90
2022/10/09 08:08:50;;;;;;;;;;;;;;;11.74;100.00;99255.22;1682348;82;24793;-88
2022/10/09 08:11:17;;;;;;;;;;;;;;;11.70;100.00;99251.08;1697686;82;22831;-88
2022/10/09 08:13:43;;;;;;;;;;;;;;;11.66;100.00;99256.14;1697624;82;25990;-86
2022/10/09 08:16:09;;;;;;;;;;;;;;;11.66;100.00;99257.45;1701473;82;24634;-86
2022/10/09 08:18:35;;;;;;;;;;;;;;;11.75;100.00;99264.77;1695348;82;20781;-86
2022/10/09 08:21:03;;;;;;;;;;;;;;;11.86;100.00;99258.87;1687318;83;24867;-84
2022/10/09 08:23:29;;;;;;;;;;;;;;;11.95;100.00;99267.00;1671778;84;22318;-85
2022/10/09 08:25:56;;;;;;;;;;;;;;;12.08;100.00;99265.78;1683111;82;26835;-86
2022/10/09 08:28:22;;;;;;;;;;;;;;;12.13;100.00;99266.33;1676666;82;24511;-88
2022/10/09 08:30:49;;;;;;;;;;;;;;;12.10;100.00;99271.31;1694473;83;20817;-87
2022/10/09 08:33:19;;;;;;;;;;;;;;;12.06;100.00;99273.73;1679675;82;25022;-86
2022/10/09 08:35:42;;;;;;;;;;;;;;;12.16;100.00;99268.28;1694391;83;22608;-86
2022/10/09 08:38:08;;;;;;;;;;;;;;;12.49;100.00;99277.11;1649918;83;21875;-84
2022/10/09 08:40:51;;;;;;;;;;;;;;;12.63;100.00;99279.33;1691016;82;20458;-84
2022/10/09 08:43:26;;;;;;;;;;;;;;;12.55;100.00;99280.66;1658390;84;20251;-89
2022/10/09 08:45:52;;;;;;;;;;;;;;;12.59;100.00;99282.63;1678750;82;24783;-89
2022/10/09 08:48:20;;;;;;;;;;;;;;;12.63;100.00;99281.95;1679341;84;22057;-89
2022/10/09 08:50:52;;;;;;;;;;;;;;;12.77;100.00;99284.05;1696586;82;26180;-90
2022/10/09 08:53:32;;;;;;;;;;;;;;;12.89;100.00;99291.13;1726291;80;24704;-89
2022/10/09 08:56:05;;;;;;;;;;;;;;;13.06;100.00;99293.13;1732977;80;20346;-90
2022/10/09 08:58:39;;;;;;;;;;;;;;;13.26;100.00;99292.66;1695430;83;24789;-90
2022/10/09 09:01:23;;;;;;;;;;;;;;;13.44;100.00;99288.80;1691582;81;22088;-90
2022/10/09 09:03:54;;;;;;;;;;;;;;;13.50;100.00;99285.75;1694038;83;26095;-89
2022/10/09 09:06:28;;;;;;;;;;;;;;;13.44;100.00;99283.54;1643961;84;24412;-88
2022/10/09 09:09:01;;;;;;;;;;;;;;;13.51;100.00;99274.30;1697692;81;20215;-86
2022/10/09 09:11:38;;;;;;;;;;;;;;;13.48;100.00;99278.43;1691473;82;25643;-85
2022/10/09 09:14:23;;;;;;;;;;;;;;;13.45;100.00;99268.14;1659069;84;21984;-85
2022/10/09 09:16:51;;;;;;;;;;;;;;;13.54;100.00;99275.39;1659823;84;26309;-86
2022/10/09 09:19:30;;;;;;;;;;;;;;;13.68;100.00;99264.77;1659934;84;24501;-84
2022/10/09 09:21:57;;;;;;;;;;;;;;;13.81;100.00;99270.85;1692272;81;20388;-83
2022/10/09 09:24:25;;;;;;;;;;;;;;;13.70;100.00;99268.13;1691086;82;24787;-84
2022/10/09 09:26:53;;;;;;;;;;;;;;;13.67;100.00;99270.13;1690295;82;22881;-84
2022/10/09 09:29:22;;;;;;;;;;;;;;;13.57;100.00;99264.67;1685997;83;26274;-84
2022/10/09 09:31:53;;;;;;;;;;;;;;;13.60;100.00;99265.77;1668703;83;24498;-84
2022/10/09 09:34:21;;;;;;;;;;;;;;;13.64;100.00;99264.59;1686164;82;20323;-86
2022/10/09 09:36:52;;;;;;;;;;;;;;;13.65;100.00;99269.39;1686830;83;25561;-89
2022/10/09 09:39:20;;;;;;;;;;;;;;;13.67;100.00;99264.88;1656720;84;22726;-89
2022/10/09 09:41:46;;;;;;;;;;;;;;;13.56;100.00;99266.09;1690432;82;26036;-86
2022/10/09 09:44:13;;;;;;;;;;;;;;;13.50;100.00;99263.88;1690191;82;24617;-88
2022/10/09 09:46:40;;;;;;;;;;;;;;;13.50;100.00;99266.03;1685917;82;20261;-85
2022/10/09 09:49:10;;;;;;;;;;;;;;;13.53;100.00;99267.13;1672733;83;24948;-86
2022/10/09 09:51:36;;;;;;;;;;;;;;;13.37;100.00;99268.64;1685806;82;22819;-83
2022/10/09 09:54:04;;;;;;;;;;;;;;;13.20;100.00;99274.20;1697333;81;21166;-83
2022/10/09 09:56:42;;;;;;;;;;;;;;;13.15;100.00;99268.87;1658099;83;24560;-89
2022/10/09 09:59:27;;;;;;;;;;;;;;;13.14;100.00;99269.37;1721172;81;20352;-85
2022/10/09 10:02:00;;;;;;;;;;;;;;;13.09;100.00;99274.03;1717195;81;24839;-90
2022/10/09 10:04:29;;;;;;;;;;;;;;;13.08;100.00;99267.13;1714069;80;22009;-86
2022/10/09 10:06:55;;;;;;;;;;;;;;;13.17;100.00;99267.00;1717092;81;26660;-86
2022/10/09 10:09:21;;;;;;;;;;;;;;;13.16;100.00;99266.63;1730972;81;20258;-84
2022/10/09 10:11:53;;;;;;;;;;;;;;;13.13;100.00;99261.59;1683178;82;20160;-83
2022/10/09 10:14:19;;;;;;;;;;;;;;;13.29;100.00;99258.30;1659044;85;24786;-85
2022/10/09 10:16:47;;;;;;;;;;;;;;;13.45;100.00;99249.73;1670208;82;20977;-89
2022/10/09 10:19:17;;;;;;;;;;;;;;;13.61;100.00;99250.36;1694912;82;26736;-89
2022/10/09 10:21:48;;;;;;;;;;;;;;;13.78;100.00;99256.61;1687697;82;24537;-88
2022/10/09 10:24:15;;;;;;;;;;;;;;;13.88;100.00;99249.38;1672055;84;20191;-90
2022/10/09 10:26:50;;;;;;;;;;;;;;;14.00;100.00;99252.47;1688658;82;24742;-89
2022/10/09 10:29:23;;;;;;;;;;;;;;;14.16;100.00;99263.11;1671732;82;22848;-90
2022/10/09 10:31:55;;;;;;;;;;;;;;;14.23;100.00;99253.00;1671287;84;25740;-89
2022/10/09 10:34:28;;;;;;;;;;;;;;;14.31;100.00;99251.95;1686488;82;24420;-83
2022/10/09 10:37:02;;;;;;;;;;;;;;;14.21;100.00;99260.16;1688415;81;20294;-89
2022/10/09 10:39:36;;;;;;;;;;;;;;;14.11;100.00;99257.81;1686602;82;24821;-88
2022/10/09 10:42:03;;;;;;;;;;;;;;;14.06;100.00;99254.20;1680390;83;21953;-88
2022/10/09 10:44:34;;;;;;;;;;;;;;;14.07;100.00;99255.04;1693335;81;26022;-83
2022/10/09 10:47:05;;;;;;;;;;;;;;;14.06;100.00;99249.41;1677794;82;24455;-83
2022/10/09 10:49:32;;;;;;;;;;;;;;;14.00;100.00;99251.15;1695646;80;20288;-83
2022/10/09 10:51:59;;;;;;;;;;;;;;;14.07;100.00;99251.91;1664016;83;24841;-83
2022/10/09 10:54:27;;;;;;;;;;;;;;;14.21;100.00;99253.56;1678499;83;22010;-88
2022/10/09 10:57:04;;;;;;;;;;;;;;;14.41;100.00;99256.10;1695121;81;26114;-89
2022/10/09 10:59:38;;;;;;;;;;;;;;;14.53;100.00;99250.80;1710811;80;24474;-89
2022/10/09 11:02:10;;;;;;;;;;;;;;;14.70;100.00;99248.72;1720732;80;20235;-84
2022/10/09 11:04:38;;;;;;;;;;;;;;;14.84;100.00;99252.00;1717840;81;24826;-86
2022/10/09 11:07:05;;;;;;;;;;;;;;;14.84;100.00;99258.59;1718312;82;22163;-86
2022/10/09 11:09:45;;;;;;;;;;;;;;;14.56;100.00;99249.75;1689122;82;26185;-85
2022/10/09 11:12:13;;;;;;;;;;;;;;;14.28;100.00;99249.55;1679789;83;24062;-88
2022/10/09 11:14:47;;;;;;;;;;;;;;;14.06;100.00;99253.34;1698341;83;20221;-88
2022/10/09 11:17:15;;;;;;;;;;;;;;;13.89;100.00;99248.43;1669924;83;24827;-88
2022/10/09 11:19:58;;;;;;;;;;;;;;;13.79;100.00;99242.52;1669172;83;22024;-83
2022/10/09 11:22:32;;;;;;;;;;;;;;;13.80;100.00;99237.59;1663589;83;27127;-82
2022/10/09 11:25:16;;;;;;;;;;;;;;;14.05;100.00;99244.61;1683042;81;24611;-84
2022/10/09 11:27:47;;;;;;;;;;;;;;;14.33;100.00;99242.16;1688535;82;20367;-85
2022/10/09 11:30:14;;;;;;;;;;;;;;;14.48;100.00;99234.48;1659612;84;24767;-83
2022/10/09 11:33:00;;;;;;;;;;;;;;;14.70;100.00;99239.02;1687191;82;22019;-87
2022/10/09 11:35:42;;;;;;;;;;;;;;;14.93;100.00;99238.64;1679698;82;26805;-90
2022/10/09 11:38:11;;;;;;;;;;;;;;;15.15;100.00;99225.52;1704608;81;24551;-89
2022/10/09 11:40:39;;;;;;;;;;;;;;;15.37;100.00;99218.97;1694742;82;20290;-88
2022/10/09 11:43:23;;;;;;;;;;;;;;;15.40;100.00;99216.09;1691171;83;25463;-86
2022/10/09 11:45:54;;;;;;;;;;;;;;;15.22;100.00;99218.80;1690420;83;22115;-86
2022/10/09 11:48:22;;;;;;;;;;;;;;;15.24;100.00;99220.02;1687219;82;26104;-86
2022/10/09 11:50:49;;;;;;;;;;;;;;;15.19;100.00;99211.62;1688245;82;24507;-86
2022/10/09 11:53:17;;;;;;;;;;;;;;;14.97;100.00;99213.72;1688097;82;20263;-89
2022/10/09 11:55:43;;;;;;;;;;;;;;;14.80;100.00;99207.08;1698381;82;24794;-84
2022/10/09 11:58:21;;;;;;;;;;;;;;;14.59;100.00;99207.36;1681383;83;20801;-83
2022/10/09 12:00:54;;;;;;;;;;;;;;;14.49;100.00;99205.89;1669224;83;26175;-83
2022/10/09 12:03:34;;;;;;;;;;;;;;;14.48;100.00;99200.25;1662837;83;24850;-88
2022/10/09 12:06:03;;;;;;;;;;;;;;;14.47;100.00;99202.98;1675489;83;20291;-83
2022/10/09 12:08:34;;;;;;;;;;;;;;;14.53;100.00;99196.80;1647759;84;24934;-89
2022/10/09 12:11:02;;;;;;;;;;;;;;;14.62;100.00;99191.31;1687834;82;21362;-89
2022/10/09 12:13:29;;;;;;;;;;;;;;;14.66;100.00;99190.16;1688771;83;25521;-86
2022/10/09 12:15:57;;;;;;;;;;;;;;;14.63;100.00;99191.69;1664590;83;24477;-86
2022/10/09 12:18:25;;;;;;;;;;;;;;;14.67;100.00;99191.00;1725447;80;20229;-86
2022/10/09 12:20:52;;;;;;;;;;;;;;;14.85;100.00;99190.92;1729757;80;25445;-84
2022/10/09 12:23:20;;;;;;;;;;;;;;;14.86;100.00;99190.81;1730628;80;22025;-84
2022/10/09 12:25:46;;;;;;;;;;;;;;;14.79;100.00;99188.27;1721847;80;27633;-83
2022/10/09 12:28:14;;;;;;;;;;;;;;;14.90;100.00;99186.14;1713712;80;24453;-84
2022/10/09 12:30:41;;;;;;;;;;;;;;;14.98;100.00;99185.09;1726200;80;20289;-84
2022/10/09 12:33:08;;;;;;;;;;;;;;;14.95;100.00;99183.98;1734362;80;25390;-88
2022/10/09 12:35:36;;;;;;;;;;;;;;;15.02;100.00;99183.42;1716927;81;22003;-86
2022/10/09 12:38:22;;;;;;;;;;;;;;;14.98;100.00;99180.67;1725018;82;26689;-90
2022/10/09 12:40:51;;;;;;;;;;;;;;;14.98;100.00;99182.45;1726689;81;24571;-84
2022/10/09 12:43:18;;;;;;;;;;;;;;;14.94;100.00;99181.02;1726030;79;20252;-89
2022/10/09 12:45:46;;;;;;;;;;;;;;;14.89;100.00;99183.98;1722402;81;24847;-89
2022/10/09 12:48:13;;;;;;;;;;;;;;;14.76;100.00;99191.14;1721404;80;22054;-89